createdAt,value
2019-03-18T00:00:55.456Z,0.00
2019-03-18T00:01:55.448Z,0.00
2019-03-18T00:02:55.466Z,0.00
2019-03-18T00:03:55.428Z,0.00
2019-03-18T00:04:55.428Z,0.00
2019-03-18T00:05:55.409Z,0.00
2019-03-18T00:06:55.391Z,0.00
2019-03-18T00:07:55.416Z,0.00
2019-03-18T00:08:55.368Z,0.00
2019-03-18T00:09:55.358Z,0.00
2019-03-18T00:10:55.356Z,0.00
2019-03-18T00:11:55.403Z,0.00
2019-03-18T00:12:55.334Z,0.00
2019-03-18T00:13:55.321Z,0.00
2019-03-18T00:15:01.253Z,0.00
2019-03-18T00:15:55.304Z,0.00
2019-03-18T00:16:55.291Z,0.00
2019-03-18T00:17:55.308Z,0.00
2019-03-18T00:18:55.270Z,0.00
2019-03-18T00:19:55.256Z,0.00
2019-03-18T00:20:55.246Z,0.00
2019-03-18T00:21:55.234Z,0.00
2019-03-18T00:22:55.255Z,0.00
2019-03-18T00:23:55.212Z,0.00
2019-03-18T00:24:55.200Z,0.00
2019-03-18T00:25:55.192Z,0.00
2019-03-18T00:26:55.179Z,0.00
2019-03-18T00:27:55.163Z,0.00
2019-03-18T00:28:55.178Z,0.00
2019-03-18T00:29:55.142Z,0.00
2019-03-18T00:30:55.132Z,0.00
2019-03-18T00:31:55.124Z,0.00
2019-03-18T00:32:55.148Z,0.00
2019-03-18T00:33:55.108Z,0.00
2019-03-18T00:34:55.087Z,0.00
2019-03-18T00:35:55.090Z,0.00
2019-03-18T00:36:55.070Z,0.00
2019-03-18T00:37:55.058Z,0.00
2019-03-18T00:38:55.060Z,0.00
2019-03-18T00:39:55.044Z,0.00
2019-03-18T00:40:55.028Z,0.00
2019-03-18T00:41:55.015Z,0.00
2019-03-18T00:42:55.004Z,0.00
2019-03-18T00:43:54.992Z,0.00
2019-03-18T00:44:54.995Z,0.00
2019-03-18T00:45:54.977Z,0.00
2019-03-18T00:46:54.962Z,0.00
2019-03-18T00:47:54.964Z,0.00
2019-03-18T00:48:54.942Z,0.00
2019-03-18T00:49:54.932Z,0.00
2019-03-18T00:50:54.924Z,0.00
2019-03-18T00:51:54.907Z,0.00
2019-03-18T00:52:54.932Z,0.00
2019-03-18T00:53:54.892Z,0.00
2019-03-18T00:54:54.880Z,0.00
2019-03-18T00:55:54.870Z,0.00
2019-03-18T00:56:54.848Z,0.00
2019-03-18T00:57:54.847Z,0.00
2019-03-18T00:58:54.834Z,0.00
2019-03-18T00:59:54.825Z,0.00
2019-03-18T01:00:54.811Z,0.00
2019-03-18T01:01:54.804Z,0.00
2019-03-18T01:02:54.794Z,0.00
2019-03-18T01:03:54.815Z,0.00
2019-03-18T01:04:54.766Z,0.00
2019-03-18T01:05:54.758Z,0.00
2019-03-18T01:06:54.744Z,0.00
2019-03-18T01:07:54.746Z,0.00
2019-03-18T01:08:54.772Z,0.00
2019-03-18T01:09:54.718Z,0.00
2019-03-18T01:10:54.710Z,0.00
2019-03-18T01:11:54.691Z,0.00
2019-03-18T01:12:54.679Z,0.00
2019-03-18T01:13:54.667Z,0.00
2019-03-18T01:14:54.689Z,0.00
2019-03-18T01:15:54.658Z,0.00
2019-03-18T01:16:54.640Z,0.00
2019-03-18T01:17:54.629Z,0.00
2019-03-18T01:18:54.616Z,0.00
2019-03-18T01:19:54.609Z,0.00
2019-03-18T01:20:54.630Z,0.00
2019-03-18T01:21:54.579Z,0.00
2019-03-18T01:22:54.579Z,0.00
2019-03-18T01:23:54.562Z,0.00
2019-03-18T01:24:54.558Z,0.00
2019-03-18T01:25:54.542Z,0.00
2019-03-18T01:26:54.558Z,0.00
2019-03-18T01:27:54.528Z,0.00
2019-03-18T01:28:54.511Z,0.00
2019-03-18T01:29:54.505Z,0.00
2019-03-18T01:30:54.488Z,0.00
2019-03-18T01:31:54.477Z,0.00
2019-03-18T01:32:54.498Z,0.00
2019-03-18T01:33:54.452Z,0.00
2019-03-18T01:34:54.442Z,0.00
2019-03-18T01:35:54.432Z,0.00
2019-03-18T01:36:54.418Z,0.00
2019-03-18T01:37:54.436Z,0.00
2019-03-18T01:38:54.429Z,0.00
2019-03-18T01:39:54.389Z,0.00
2019-03-18T01:40:54.376Z,0.00
2019-03-18T01:41:54.365Z,0.00
2019-03-18T01:42:54.357Z,0.00
2019-03-18T01:43:54.378Z,0.00
2019-03-18T01:44:54.340Z,0.00
2019-03-18T01:45:55.116Z,0.00
2019-03-18T01:46:54.311Z,0.00
2019-03-18T01:47:54.303Z,0.00
2019-03-18T01:48:54.300Z,0.00
2019-03-18T01:49:54.317Z,0.00
2019-03-18T01:50:54.266Z,0.00
2019-03-18T01:51:54.260Z,0.00
2019-03-18T01:52:54.244Z,0.00
2019-03-18T01:53:54.272Z,0.00
2019-03-18T01:54:54.227Z,0.00
2019-03-18T01:55:54.215Z,0.00
2019-03-18T01:56:54.202Z,0.00
2019-03-18T01:57:54.191Z,0.00
2019-03-18T01:58:54.203Z,0.00
2019-03-18T01:59:54.169Z,0.00
2019-03-18T02:00:54.155Z,0.00
2019-03-18T02:01:54.151Z,0.00
2019-03-18T02:02:54.137Z,0.00
2019-03-18T02:03:54.125Z,0.00
2019-03-18T02:04:54.156Z,0.00
2019-03-18T02:05:54.106Z,0.00
2019-03-18T02:06:54.090Z,0.00
2019-03-18T02:07:54.087Z,0.00
2019-03-18T02:08:54.108Z,0.00
2019-03-18T02:09:54.068Z,0.00
2019-03-18T02:10:54.047Z,0.00
2019-03-18T02:11:54.039Z,0.00
2019-03-18T02:12:54.037Z,0.00
2019-03-18T02:13:57.149Z,0.00
2019-03-18T02:14:54.010Z,0.00
2019-03-18T02:15:54.099Z,0.00
2019-03-18T02:16:53.987Z,0.00
2019-03-18T02:17:53.979Z,0.00
2019-03-18T02:18:53.999Z,0.00
2019-03-18T02:19:53.951Z,0.00
2019-03-18T02:20:53.950Z,0.00
2019-03-18T02:21:53.933Z,0.00
2019-03-18T02:22:53.919Z,0.00
2019-03-18T02:23:53.911Z,0.00
2019-03-18T02:24:53.927Z,0.00
2019-03-18T02:25:53.889Z,0.00
2019-03-18T02:26:53.878Z,0.00
2019-03-18T02:27:53.873Z,0.00
2019-03-18T02:28:53.890Z,0.00
2019-03-18T02:29:53.845Z,0.00
2019-03-18T02:30:53.831Z,0.00
2019-03-18T02:31:53.826Z,0.00
2019-03-18T02:32:53.836Z,0.00
2019-03-18T02:33:53.838Z,0.00
2019-03-18T02:34:53.791Z,0.00
2019-03-18T02:35:53.780Z,0.00
2019-03-18T02:36:53.773Z,0.00
2019-03-18T02:37:53.765Z,0.00
2019-03-18T02:38:53.750Z,0.00
2019-03-18T02:39:53.779Z,0.00
2019-03-18T02:40:53.725Z,0.00
2019-03-18T02:41:53.712Z,0.00
2019-03-18T02:42:53.699Z,0.00
2019-03-18T02:43:53.693Z,0.00
2019-03-18T02:44:53.688Z,0.00
2019-03-18T02:46:09.001Z,0.00
2019-03-18T02:46:53.661Z,0.00
2019-03-18T02:47:56.600Z,0.00
2019-03-18T02:48:53.638Z,0.00
2019-03-18T02:49:56.602Z,0.00
2019-03-18T02:50:53.616Z,0.00
2019-03-18T02:51:53.635Z,0.00
2019-03-18T02:52:53.600Z,0.00
2019-03-18T02:53:53.583Z,0.00
2019-03-18T02:54:53.573Z,0.00
2019-03-18T02:55:53.571Z,0.00
2019-03-18T02:56:53.553Z,0.00
2019-03-18T02:57:53.569Z,0.00
2019-03-18T02:58:53.540Z,0.00
2019-03-18T02:59:53.526Z,0.00
2019-03-18T03:00:53.538Z,0.00
2019-03-18T03:01:53.496Z,0.00
2019-03-18T03:02:53.485Z,0.00
2019-03-18T03:03:53.473Z,0.00
2019-03-18T03:04:53.469Z,0.00
2019-03-18T03:05:53.484Z,0.00
2019-03-18T03:06:53.487Z,0.00
2019-03-18T03:07:53.437Z,0.00
2019-03-18T03:08:53.417Z,0.00
2019-03-18T03:09:53.405Z,0.00
2019-03-18T03:10:53.396Z,0.00
2019-03-18T03:11:53.398Z,0.00
2019-03-18T03:12:53.421Z,0.00
2019-03-18T03:13:53.370Z,0.00
2019-03-18T03:14:53.358Z,0.00
2019-03-18T03:15:53.344Z,0.00
2019-03-18T03:16:53.337Z,0.00
2019-03-18T03:17:53.324Z,0.00
2019-03-18T03:18:54.087Z,0.00
2019-03-18T03:19:53.304Z,0.00
2019-03-18T03:20:53.292Z,0.00
2019-03-18T03:21:53.282Z,0.00
2019-03-18T03:22:54.081Z,0.00
2019-03-18T03:23:53.257Z,0.00
2019-03-18T03:24:56.088Z,0.00
2019-03-18T03:25:53.236Z,0.00
2019-03-18T03:26:53.233Z,0.00
2019-03-18T03:27:53.216Z,0.00
2019-03-18T03:28:53.196Z,0.00
2019-03-18T03:29:53.191Z,0.00
2019-03-18T03:30:53.212Z,0.00
2019-03-18T03:31:53.175Z,0.00
2019-03-18T03:32:53.169Z,0.00
2019-03-18T03:33:53.152Z,0.00
2019-03-18T03:34:54.121Z,0.00
2019-03-18T03:35:53.123Z,0.00
2019-03-18T03:36:53.148Z,0.00
2019-03-18T03:37:53.108Z,0.00
2019-03-18T03:38:53.109Z,0.00
2019-03-18T03:39:53.077Z,0.00
2019-03-18T03:40:53.067Z,0.00
2019-03-18T03:41:53.067Z,0.00
2019-03-18T03:42:53.055Z,0.00
2019-03-18T03:43:53.058Z,0.00
2019-03-18T03:44:53.026Z,0.00
2019-03-18T03:45:53.026Z,0.00
2019-03-18T03:46:53.006Z,0.00
2019-03-18T03:47:53.007Z,0.00
2019-03-18T03:48:52.987Z,0.00
2019-03-18T03:49:53.013Z,0.00
2019-03-18T03:50:52.971Z,0.00
2019-03-18T03:51:52.982Z,0.00
2019-03-18T03:52:52.943Z,0.00
2019-03-18T03:53:52.932Z,0.00
2019-03-18T03:54:52.917Z,0.00
2019-03-18T03:55:52.938Z,0.00
2019-03-18T03:56:52.907Z,0.00
2019-03-18T03:57:52.919Z,0.00
2019-03-18T03:58:52.871Z,0.00
2019-03-18T03:59:52.900Z,0.00
2019-03-18T04:00:52.855Z,0.00
2019-03-18T04:01:52.845Z,0.00
2019-03-18T04:02:55.571Z,0.00
2019-03-18T04:03:52.823Z,0.00
2019-03-18T04:04:52.839Z,0.00
2019-03-18T04:05:52.808Z,0.00
2019-03-18T04:06:52.790Z,0.00
2019-03-18T04:07:52.788Z,0.00
2019-03-18T04:08:52.771Z,0.00
2019-03-18T04:09:52.758Z,0.00
2019-03-18T04:10:52.807Z,0.00
2019-03-18T04:11:52.738Z,0.00
2019-03-18T04:12:52.719Z,0.00
2019-03-18T04:13:52.743Z,0.00
2019-03-18T04:14:52.702Z,0.00
2019-03-18T04:15:52.689Z,0.00
2019-03-18T04:17:01.767Z,0.00
2019-03-18T04:17:52.665Z,0.00
2019-03-18T04:18:52.654Z,0.00
2019-03-18T04:19:52.683Z,0.00
2019-03-18T04:20:52.639Z,0.00
2019-03-18T04:21:52.630Z,0.00
2019-03-18T04:22:52.612Z,0.00
2019-03-18T04:23:52.605Z,0.00
2019-03-18T04:24:52.590Z,0.00
2019-03-18T04:25:52.615Z,0.00
2019-03-18T04:26:52.566Z,0.00
2019-03-18T04:27:52.565Z,0.00
2019-03-18T04:28:52.553Z,0.00
2019-03-18T04:29:52.571Z,0.00
2019-03-18T04:30:52.524Z,0.00
2019-03-18T04:31:52.546Z,0.00
2019-03-18T04:32:52.513Z,0.00
2019-03-18T04:33:52.493Z,0.00
2019-03-18T04:34:52.487Z,0.00
2019-03-18T04:35:52.479Z,0.00
2019-03-18T04:36:52.492Z,0.00
2019-03-18T04:37:52.452Z,0.00
2019-03-18T04:38:52.439Z,0.00
2019-03-18T04:39:52.424Z,0.00
2019-03-18T04:40:52.418Z,0.00
2019-03-18T04:41:52.439Z,0.00
2019-03-18T04:42:52.391Z,0.00
2019-03-18T04:43:52.386Z,0.00
2019-03-18T04:44:52.374Z,0.00
2019-03-18T04:45:52.361Z,0.00
2019-03-18T04:46:52.366Z,0.00
2019-03-18T04:47:52.346Z,0.00
2019-03-18T04:48:52.329Z,0.00
2019-03-18T04:49:52.322Z,0.00
2019-03-18T04:50:52.311Z,0.00
2019-03-18T04:51:52.303Z,0.00
2019-03-18T04:52:52.313Z,0.00
2019-03-18T04:53:52.271Z,0.00
2019-03-18T04:54:52.264Z,0.00
2019-03-18T04:55:52.252Z,0.00
2019-03-18T04:56:52.248Z,0.00
2019-03-18T04:57:52.248Z,0.00
2019-03-18T04:58:52.227Z,0.00
2019-03-18T04:59:52.215Z,0.00
2019-03-18T05:00:52.199Z,0.00
2019-03-18T05:01:52.193Z,0.00
2019-03-18T05:04:00.912Z,0.00
2019-03-18T05:05:01.873Z,0.00
2019-03-18T05:06:01.863Z,0.00
2019-03-18T05:07:01.861Z,0.00
2019-03-18T05:08:01.841Z,0.00
2019-03-18T05:09:01.862Z,0.00
2019-03-18T05:10:01.825Z,0.00
2019-03-18T05:11:01.800Z,0.00
2019-03-18T05:12:01.788Z,0.00
2019-03-18T05:13:01.783Z,0.00
2019-03-18T05:14:01.772Z,0.00
2019-03-18T05:15:01.785Z,0.00
2019-03-18T05:16:01.755Z,0.00
2019-03-18T05:17:01.737Z,0.00
2019-03-18T05:18:01.736Z,0.00
2019-03-18T05:19:01.720Z,5.62
2019-03-18T05:20:01.737Z,5.62
2019-03-18T05:21:01.701Z,5.62
2019-03-18T05:22:01.682Z,5.62
2019-03-18T05:23:01.673Z,5.62
2019-03-18T05:24:01.666Z,5.62
2019-03-18T05:25:01.677Z,5.62
2019-03-18T05:26:01.646Z,5.62
2019-03-18T05:27:01.635Z,5.62
2019-03-18T05:28:01.622Z,5.62
2019-03-18T05:29:01.607Z,11.25
2019-03-18T05:30:01.668Z,11.25
2019-03-18T05:31:01.592Z,11.25
2019-03-18T05:32:01.573Z,11.25
2019-03-18T05:33:01.560Z,11.25
2019-03-18T05:34:01.556Z,11.25
2019-03-18T05:35:01.582Z,11.25
2019-03-18T05:36:01.542Z,16.88
2019-03-18T05:37:01.519Z,16.88
2019-03-18T05:38:01.512Z,16.88
2019-03-18T05:39:02.079Z,16.88
2019-03-18T05:40:01.513Z,16.88
2019-03-18T05:41:01.480Z,16.88
2019-03-18T05:42:01.463Z,16.88
2019-03-18T05:43:01.464Z,16.88
2019-03-18T05:44:01.442Z,16.88
2019-03-18T05:45:01.461Z,16.88
2019-03-18T05:46:02.076Z,22.50
2019-03-18T05:47:01.412Z,22.50
2019-03-18T05:48:01.408Z,22.50
2019-03-18T05:49:01.386Z,22.50
2019-03-18T05:50:01.412Z,22.50
2019-03-18T05:51:01.367Z,28.12
2019-03-18T05:52:01.354Z,28.12
2019-03-18T05:53:01.372Z,28.12
2019-03-18T05:54:01.405Z,28.12
2019-03-18T05:55:01.323Z,28.12
2019-03-18T05:56:01.313Z,33.75
2019-03-18T05:57:01.302Z,33.75
2019-03-18T05:58:01.328Z,28.12
2019-03-18T05:59:01.280Z,28.12
2019-03-18T06:00:01.272Z,22.50
2019-03-18T06:01:01.258Z,22.50
2019-03-18T06:02:01.251Z,22.50
2019-03-18T06:03:01.232Z,22.50
2019-03-18T06:04:01.218Z,22.50
2019-03-18T06:05:01.220Z,22.50
2019-03-18T06:06:01.205Z,22.50
2019-03-18T06:07:01.189Z,22.50
2019-03-18T06:08:01.210Z,28.12
2019-03-18T06:09:01.165Z,28.12
2019-03-18T06:10:01.156Z,28.12
2019-03-18T06:11:01.146Z,28.12
2019-03-18T06:12:01.130Z,28.12
2019-03-18T06:13:01.144Z,28.12
2019-03-18T06:14:01.114Z,22.50
2019-03-18T06:15:01.103Z,22.50
2019-03-18T06:16:01.096Z,22.50
2019-03-18T06:17:01.108Z,22.50
2019-03-18T06:18:01.070Z,22.50
2019-03-18T06:19:01.060Z,22.50
2019-03-18T06:20:01.054Z,28.12
2019-03-18T06:21:01.071Z,28.12
2019-03-18T06:22:01.030Z,28.12
2019-03-18T06:23:01.010Z,28.12
2019-03-18T06:24:01.002Z,28.12
2019-03-18T06:25:00.998Z,28.12
2019-03-18T06:26:01.007Z,33.75
2019-03-18T06:27:00.976Z,33.75
2019-03-18T06:28:00.960Z,39.38
2019-03-18T06:29:00.951Z,39.38
2019-03-18T06:30:00.943Z,39.38
2019-03-18T06:31:00.956Z,39.38
2019-03-18T06:32:00.923Z,39.38
2019-03-18T06:33:00.902Z,33.75
2019-03-18T06:34:59.903Z,39.38
2019-03-18T06:36:00.904Z,39.38
2019-03-18T06:37:00.888Z,45.00
2019-03-18T06:38:00.850Z,50.62
2019-03-18T06:39:00.836Z,61.88
2019-03-18T06:40:00.854Z,61.88
2019-03-18T06:41:00.821Z,56.25
2019-03-18T06:42:00.800Z,45.00
2019-03-18T06:43:00.824Z,39.38
2019-03-18T06:44:00.778Z,39.38
2019-03-18T06:45:00.774Z,33.75
2019-03-18T06:46:01.552Z,33.75
2019-03-18T06:47:01.555Z,33.75
2019-03-18T06:48:05.296Z,33.75
2019-03-18T06:49:00.755Z,39.38
2019-03-18T06:50:00.712Z,39.38
2019-03-18T06:51:00.710Z,39.38
2019-03-18T06:52:00.702Z,33.75
2019-03-18T06:53:00.690Z,33.75
2019-03-18T06:54:00.708Z,33.75
2019-03-18T06:55:00.687Z,33.75
2019-03-18T06:56:00.652Z,39.38
2019-03-18T06:57:00.639Z,39.38
2019-03-18T06:58:00.625Z,33.75
2019-03-18T06:59:00.610Z,39.38
2019-03-18T07:00:00.609Z,39.38
2019-03-18T07:01:00.626Z,33.75
2019-03-18T07:02:00.661Z,39.38
2019-03-18T07:04:09.275Z,39.38
2019-03-18T07:05:10.291Z,39.38
2019-03-18T07:06:12.980Z,39.38
2019-03-18T07:07:12.982Z,45.00
2019-03-18T07:08:10.233Z,45.00
2019-03-18T07:09:10.242Z,45.00
2019-03-18T07:10:10.214Z,50.62
2019-03-18T07:11:10.195Z,50.62
2019-03-18T07:12:10.184Z,56.25
2019-03-18T07:13:10.175Z,56.25
2019-03-18T07:14:10.167Z,50.62
2019-03-18T07:15:10.178Z,45.00
2019-03-18T07:16:10.980Z,56.25
2019-03-18T07:17:10.136Z,50.62
2019-03-18T07:18:18.241Z,50.62
2019-03-18T07:19:12.973Z,50.62
2019-03-18T07:20:10.133Z,50.62
2019-03-18T07:21:10.087Z,50.62
2019-03-18T07:22:10.096Z,45.00
2019-03-18T07:23:12.978Z,50.62
2019-03-18T07:24:10.057Z,50.62
2019-03-18T07:25:12.975Z,45.00
2019-03-18T07:26:10.054Z,50.62
2019-03-18T07:27:10.062Z,56.25
2019-03-18T07:28:12.973Z,61.88
2019-03-18T07:29:10.003Z,61.88
2019-03-18T07:30:15.038Z,50.62
2019-03-18T07:31:09.981Z,56.25
2019-03-18T07:32:09.975Z,56.25
2019-03-18T07:33:09.971Z,61.88
2019-03-18T07:34:09.953Z,56.25
2019-03-18T07:35:09.940Z,61.88
2019-03-18T07:36:09.963Z,56.25
2019-03-18T07:38:08.929Z,61.88
2019-03-18T07:39:09.905Z,56.25
2019-03-18T07:40:11.240Z,56.25
2019-03-18T07:41:09.888Z,61.88
2019-03-18T07:42:09.896Z,61.88
2019-03-18T07:43:09.847Z,61.88
2019-03-18T07:44:09.840Z,67.50
2019-03-18T07:45:09.834Z,73.12
2019-03-18T07:46:09.812Z,73.12
2019-03-18T07:47:09.871Z,73.12
2019-03-18T07:48:12.736Z,73.12
2019-03-18T07:49:09.786Z,73.12
2019-03-18T07:50:09.801Z,73.12
2019-03-18T07:51:09.760Z,73.12
2019-03-18T07:52:09.752Z,73.12
2019-03-18T07:53:12.465Z,73.12
2019-03-18T07:54:09.742Z,78.75
2019-03-18T07:55:09.762Z,78.75
2019-03-18T07:56:09.712Z,78.75
2019-03-18T07:57:09.836Z,78.75
2019-03-18T07:58:09.695Z,78.75
2019-03-18T08:00:08.694Z,78.75
2019-03-18T08:01:09.759Z,78.75
2019-03-18T08:02:09.763Z,78.75
2019-03-18T08:03:09.703Z,84.38
2019-03-18T08:04:09.642Z,84.38
2019-03-18T08:05:09.610Z,84.38
2019-03-18T08:06:09.948Z,84.38
2019-03-18T08:07:09.625Z,84.38
2019-03-18T08:08:09.604Z,84.38
2019-03-18T08:09:09.564Z,84.38
2019-03-18T08:10:09.558Z,84.38
2019-03-18T08:11:09.545Z,84.38
2019-03-18T08:12:12.462Z,84.38
2019-03-18T08:13:09.559Z,84.38
2019-03-18T08:14:09.541Z,84.38
2019-03-18T08:15:09.508Z,84.38
2019-03-18T08:16:09.542Z,90.00
2019-03-18T08:17:09.487Z,90.00
2019-03-18T08:18:09.491Z,95.62
2019-03-18T08:19:09.461Z,95.62
2019-03-18T08:20:09.450Z,95.62
2019-03-18T08:21:09.437Z,95.62
2019-03-18T08:22:09.434Z,90.00
2019-03-18T08:23:09.503Z,90.00
2019-03-18T08:24:09.399Z,90.00
2019-03-18T08:25:10.002Z,90.00
2019-03-18T08:26:09.386Z,90.00
2019-03-18T08:27:09.383Z,90.00
2019-03-18T08:28:09.364Z,95.62
2019-03-18T08:29:11.958Z,90.00
2019-03-18T08:30:09.368Z,90.00
2019-03-18T08:31:09.329Z,90.00
2019-03-18T08:32:11.669Z,90.00
2019-03-18T08:34:08.296Z,95.62
2019-03-18T08:35:09.309Z,95.62
2019-03-18T08:36:09.281Z,95.62
2019-03-18T08:37:09.276Z,95.62
2019-03-18T08:38:09.288Z,95.62
2019-03-18T08:39:09.244Z,95.62
2019-03-18T08:40:09.292Z,101.25
2019-03-18T08:41:09.283Z,95.62
2019-03-18T08:42:09.964Z,95.62
2019-03-18T08:43:09.222Z,95.62
2019-03-18T08:44:09.191Z,95.62
2019-03-18T08:45:09.956Z,95.62
2019-03-18T08:46:09.198Z,95.62
2019-03-18T08:47:09.167Z,95.62
2019-03-18T08:48:09.159Z,95.62
2019-03-18T08:49:09.953Z,101.25
2019-03-18T08:50:11.937Z,101.25
2019-03-18T08:51:09.150Z,101.25
2019-03-18T08:52:09.099Z,101.25
2019-03-18T08:53:09.095Z,101.25
2019-03-18T08:54:09.087Z,101.25
2019-03-18T08:55:09.995Z,106.88
2019-03-18T08:56:09.951Z,106.88
2019-03-18T08:57:09.049Z,112.50
2019-03-18T08:58:09.048Z,112.50
2019-03-18T08:59:09.032Z,118.12
2019-03-18T09:00:09.081Z,123.75
2019-03-18T09:01:09.012Z,135.00
2019-03-18T09:02:08.992Z,151.88
2019-03-18T09:03:08.984Z,174.38
2019-03-18T09:04:08.972Z,191.25
2019-03-18T09:05:08.980Z,241.88
2019-03-18T09:06:09.009Z,230.62
2019-03-18T09:07:08.971Z,185.62
2019-03-18T09:08:09.447Z,123.75
2019-03-18T09:09:08.929Z,101.25
2019-03-18T09:10:08.903Z,90.00
2019-03-18T09:12:07.928Z,118.12
2019-03-18T09:13:08.876Z,123.75
2019-03-18T09:14:11.447Z,135.00
2019-03-18T09:15:08.872Z,185.62
2019-03-18T09:16:08.848Z,253.12
2019-03-18T09:17:08.855Z,270.00
2019-03-18T09:18:08.854Z,303.75
2019-03-18T09:19:09.338Z,376.88
2019-03-18T09:20:08.803Z,371.25
2019-03-18T09:21:08.785Z,348.75
2019-03-18T09:22:08.777Z,320.62
2019-03-18T09:23:08.778Z,405.00
2019-03-18T09:24:08.791Z,365.62
2019-03-18T09:25:08.748Z,303.75
2019-03-18T09:26:08.732Z,337.50
2019-03-18T09:27:08.725Z,331.88
2019-03-18T09:28:08.743Z,241.88
2019-03-18T09:29:08.713Z,247.50
2019-03-18T09:30:08.685Z,247.50
2019-03-18T09:31:08.701Z,230.62
2019-03-18T09:32:08.673Z,230.62
2019-03-18T09:33:08.718Z,230.62
2019-03-18T09:34:08.649Z,213.75
2019-03-18T09:35:08.627Z,191.25
2019-03-18T09:36:08.640Z,191.25
2019-03-18T09:37:08.609Z,202.50
2019-03-18T09:38:11.436Z,208.12
2019-03-18T09:39:08.615Z,208.12
2019-03-18T09:40:08.580Z,196.88
2019-03-18T09:41:09.090Z,185.62
2019-03-18T09:42:08.552Z,174.38
2019-03-18T09:43:11.435Z,157.50
2019-03-18T09:44:08.537Z,151.88
2019-03-18T09:45:08.543Z,168.75
2019-03-18T09:46:08.508Z,146.25
2019-03-18T09:47:08.498Z,157.50
2019-03-18T09:48:08.539Z,196.88
2019-03-18T09:49:20.660Z,185.62
2019-03-18T09:50:08.467Z,191.25
2019-03-18T09:51:09.668Z,208.12
2019-03-18T09:52:08.441Z,219.38
2019-03-18T09:53:08.425Z,230.62
2019-03-18T09:54:08.447Z,264.38
2019-03-18T09:55:08.476Z,270.00
2019-03-18T09:56:10.936Z,241.88
2019-03-18T09:57:08.932Z,202.50
2019-03-18T09:58:08.377Z,191.25
2019-03-18T09:59:08.371Z,213.75
2019-03-18T10:00:08.391Z,196.88
2019-03-18T10:01:10.929Z,230.62
2019-03-18T10:02:08.331Z,264.38
2019-03-18T10:03:08.323Z,258.75
2019-03-18T10:04:08.309Z,236.25
2019-03-18T10:06:07.297Z,241.88
2019-03-18T10:07:08.275Z,230.62
2019-03-18T10:08:08.309Z,236.25
2019-03-18T10:09:08.255Z,247.50
2019-03-18T10:10:08.263Z,236.25
2019-03-18T10:11:08.233Z,219.38
2019-03-18T10:12:08.228Z,247.50
2019-03-18T10:13:08.236Z,202.50
2019-03-18T10:14:08.199Z,168.75
2019-03-18T10:15:08.491Z,185.62
2019-03-18T10:16:08.220Z,180.00
2019-03-18T10:17:10.036Z,191.25
2019-03-18T10:18:08.155Z,151.88
2019-03-18T10:19:08.181Z,140.62
2019-03-18T10:20:08.264Z,157.50
2019-03-18T10:21:08.124Z,191.25
2019-03-18T10:22:08.111Z,241.88
2019-03-18T10:23:08.095Z,275.62
2019-03-18T10:24:08.081Z,275.62
2019-03-18T10:25:08.485Z,253.12
2019-03-18T10:26:08.060Z,247.50
2019-03-18T10:27:08.926Z,247.50
2019-03-18T10:28:08.044Z,264.38
2019-03-18T10:29:08.060Z,292.50
2019-03-18T10:30:08.016Z,303.75
2019-03-18T10:31:08.010Z,281.25
2019-03-18T10:32:07.999Z,286.88
2019-03-18T10:33:07.989Z,253.12
2019-03-18T10:34:08.015Z,247.50
2019-03-18T10:35:08.003Z,270.00
2019-03-18T10:36:08.006Z,258.75
2019-03-18T10:37:07.942Z,247.50
2019-03-18T10:38:07.932Z,253.12
2019-03-18T10:39:07.930Z,247.50
2019-03-18T10:40:07.929Z,230.62
2019-03-18T10:41:07.927Z,236.25
2019-03-18T10:42:07.893Z,241.88
2019-03-18T10:43:07.875Z,258.75
2019-03-18T10:44:08.055Z,219.38
2019-03-18T10:45:07.850Z,247.50
2019-03-18T10:46:07.893Z,236.25
2019-03-18T10:47:07.834Z,174.38
2019-03-18T10:48:07.819Z,140.62
2019-03-18T10:49:07.811Z,157.50
2019-03-18T10:50:07.889Z,151.88
2019-03-18T10:51:07.791Z,129.38
2019-03-18T10:52:07.814Z,101.25
2019-03-18T10:53:07.774Z,118.12
2019-03-18T10:54:07.785Z,106.88
2019-03-18T10:55:07.759Z,118.12
2019-03-18T10:56:08.518Z,135.00
2019-03-18T10:57:07.721Z,157.50
2019-03-18T10:58:07.715Z,213.75
2019-03-18T10:59:07.703Z,258.75
2019-03-18T11:00:07.702Z,258.75
2019-03-18T11:01:07.708Z,202.50
2019-03-18T11:02:08.415Z,219.38
2019-03-18T11:03:07.657Z,241.88
2019-03-18T11:04:07.642Z,258.75
2019-03-18T11:05:08.332Z,253.12
2019-03-18T11:06:07.660Z,230.62
2019-03-18T11:07:07.618Z,202.50
2019-03-18T11:08:07.611Z,202.50
2019-03-18T11:09:07.595Z,247.50
2019-03-18T11:10:07.577Z,270.00
2019-03-18T11:11:07.593Z,270.00
2019-03-18T11:12:07.555Z,281.25
2019-03-18T11:13:07.545Z,286.88
2019-03-18T11:14:07.534Z,286.88
2019-03-18T11:15:07.530Z,270.00
2019-03-18T11:16:07.539Z,275.62
2019-03-18T11:17:07.540Z,264.38
2019-03-18T11:18:07.489Z,286.88
2019-03-18T11:19:07.481Z,309.38
2019-03-18T11:20:07.468Z,281.25
2019-03-18T11:21:07.488Z,270.00
2019-03-18T11:22:07.502Z,270.00
2019-03-18T11:23:07.434Z,281.25
2019-03-18T11:24:07.431Z,258.75
2019-03-18T11:25:07.414Z,281.25
2019-03-18T11:26:07.912Z,286.88
2019-03-18T11:27:07.659Z,281.25
2019-03-18T11:28:07.393Z,258.75
2019-03-18T11:29:07.369Z,253.12
2019-03-18T11:30:07.360Z,241.88
2019-03-18T11:31:07.375Z,241.88
2019-03-18T11:32:07.344Z,253.12
2019-03-18T11:33:07.325Z,225.00
2019-03-18T11:34:07.351Z,151.88
2019-03-18T11:35:07.302Z,157.50
2019-03-18T11:36:07.320Z,202.50
2019-03-18T11:37:07.282Z,208.12
2019-03-18T11:38:07.268Z,213.75
2019-03-18T11:39:07.265Z,253.12
2019-03-18T11:40:07.250Z,236.25
2019-03-18T11:41:07.302Z,219.38
2019-03-18T11:42:07.228Z,230.62
2019-03-18T11:43:07.366Z,174.38
2019-03-18T11:44:07.204Z,112.50
2019-03-18T11:45:08.296Z,90.00
2019-03-18T11:46:07.222Z,73.12
2019-03-18T11:47:07.174Z,56.25
2019-03-18T11:48:07.156Z,73.12
2019-03-18T11:49:07.148Z,135.00
2019-03-18T11:50:11.419Z,225.00
2019-03-18T11:51:07.183Z,281.25
2019-03-18T11:52:07.122Z,275.62
2019-03-18T11:53:14.202Z,264.38
2019-03-18T11:54:07.101Z,236.25
2019-03-18T11:55:07.277Z,281.25
2019-03-18T11:56:07.106Z,281.25
2019-03-18T11:57:07.056Z,230.62
2019-03-18T11:58:07.049Z,191.25
2019-03-18T11:59:07.041Z,151.88
2019-03-18T12:00:07.069Z,157.50
2019-03-18T12:01:07.066Z,196.88
2019-03-18T12:02:09.904Z,258.75
2019-03-18T12:03:06.998Z,298.12
2019-03-18T12:04:06.990Z,275.62
2019-03-18T12:05:07.443Z,258.75
2019-03-18T12:06:06.987Z,241.88
2019-03-18T12:07:06.955Z,236.25
2019-03-18T12:08:09.900Z,174.38
2019-03-18T12:09:06.940Z,202.50
2019-03-18T12:10:07.165Z,213.75
2019-03-18T12:11:06.932Z,146.25
2019-03-18T12:12:06.890Z,163.12
2019-03-18T12:13:06.892Z,202.50
2019-03-18T12:14:06.893Z,185.62
2019-03-18T12:15:06.858Z,135.00
2019-03-18T12:16:06.878Z,90.00
2019-03-18T12:17:06.834Z,90.00
2019-03-18T12:18:06.971Z,90.00
2019-03-18T12:19:06.824Z,90.00
2019-03-18T12:20:06.806Z,112.50
2019-03-18T12:21:06.825Z,118.12
2019-03-18T12:22:06.786Z,123.75
2019-03-18T12:24:05.765Z,219.38
2019-03-18T12:25:06.781Z,230.62
2019-03-18T12:26:06.792Z,196.88
2019-03-18T12:27:06.726Z,196.88
2019-03-18T12:28:06.716Z,208.12
2019-03-18T12:29:06.719Z,185.62
2019-03-18T12:30:06.735Z,213.75
2019-03-18T12:31:06.679Z,247.50
2019-03-18T12:32:06.677Z,275.62
2019-03-18T12:33:06.666Z,292.50
2019-03-18T12:34:27.662Z,258.75
2019-03-18T12:35:06.668Z,225.00
2019-03-18T12:36:06.626Z,213.75
2019-03-18T12:37:06.642Z,208.12
2019-03-18T12:38:06.615Z,191.25
2019-03-18T12:39:06.651Z,174.38
2019-03-18T12:41:05.575Z,185.62
2019-03-18T12:42:06.558Z,174.38
2019-03-18T12:43:06.565Z,140.62
2019-03-18T12:44:06.579Z,123.75
2019-03-18T12:45:08.847Z,118.12
2019-03-18T12:46:07.393Z,118.12
2019-03-18T12:47:06.504Z,118.12
2019-03-18T12:48:06.495Z,118.12
2019-03-18T12:49:06.542Z,118.12
2019-03-18T12:50:06.477Z,123.75
2019-03-18T12:51:06.468Z,140.62
2019-03-18T12:53:05.438Z,219.38
2019-03-18T12:54:06.452Z,180.00
2019-03-18T12:55:06.423Z,168.75
2019-03-18T12:56:06.424Z,157.50
2019-03-18T12:57:06.430Z,140.62
2019-03-18T12:58:06.379Z,135.00
2019-03-18T12:59:06.376Z,112.50
2019-03-18T13:00:06.366Z,95.62
2019-03-18T13:01:12.492Z,95.62
2019-03-18T13:02:06.350Z,118.12
2019-03-18T13:03:06.341Z,101.25
2019-03-18T13:04:06.322Z,106.88
2019-03-18T13:05:06.344Z,140.62
2019-03-18T13:06:06.302Z,146.25
2019-03-18T13:07:06.291Z,140.62